Time;durP1;ratioP1;P1;durP2;ratioP2;P2;SDS_P1;SDS_P2;PMS_P1;PMS_P2;Temp;Humidity;BMP_temperature;BMP_pressure;BME280_temperature;BME280_humidity;BME280_pressure;Samples;Min_cycle;Max_cycle;Signal;HPM_P1;HPM_P2
2021/12/04 00:02:04;;;;;;;;;2.00;2.00;;;;;-147.17;100.00;49690.50;5040657;28;51075;-56
2021/12/04 00:04:33;;;;;;;;;2.00;2.00;;;;;-147.17;100.00;49704.28;5034913;28;50990;-56
2021/12/04 00:06:59;;;;;;;;;0.33;0.00;;;;;-147.17;100.00;49706.25;5034670;28;51067;-55
2021/12/04 00:09:24;;;;;;;;;0.00;0.00;;;;;-147.17;100.00;49645.25;5051934;28;51032;-55
2021/12/04 00:12:03;;;;;;;;;3.00;3.00;;;;;-147.17;100.00;49686.56;5049775;28;51318;-53
2021/12/04 00:14:30;;;;;;;;;25.25;23.25;;;;;-147.17;100.00;49655.09;5027954;28;51282;-55
2021/12/04 00:16:56;;;;;;;;;6.67;6.00;;;;;-147.17;100.00;49651.16;5054138;28;52058;-55
2021/12/04 00:19:23;;;;;;;;;14.75;13.75;;;;;-147.17;100.00;49670.81;5054922;28;50988;-54
2021/12/04 00:21:49;;;;;;;;;3.00;3.00;;;;;-147.17;100.00;49643.28;5054953;28;51252;-55
2021/12/04 00:24:15;;;;;;;;;0.33;0.00;;;;;-147.17;100.00;49651.16;5051977;28;51142;-56
2021/12/04 00:26:41;;;;;;;;;0.00;0.00;;;;;-147.17;100.00;49629.50;5054738;28;51986;-55
2021/12/04 00:29:07;;;;;;;;;0.00;0.00;;;;;-147.17;100.00;49627.53;5055588;28;51160;-55
2021/12/04 00:31:33;;;;;;;;;3.00;2.00;;;;;-147.17;100.00;49631.47;5054575;28;50946;-54
2021/12/04 00:33:59;;;;;;;;;1.00;0.00;;;;;-147.17;100.00;49623.59;5052868;28;51147;-55
2021/12/04 00:49:46;;;;;;;;;1.00;1.00;;;;;-147.17;100.00;49627.53;5053761;28;51207;-54
2021/12/04 00:52:11;;;;;;;;;11.67;11.67;;;;;-147.17;100.00;49659.03;5053546;28;51083;-55
2021/12/04 00:54:37;;;;;;;;;4.00;4.00;;;;;-147.17;100.00;49692.47;5054653;28;51115;-53
2021/12/04 00:57:03;;;;;;;;;1.00;1.00;;;;;-147.17;100.00;49639.34;5054245;28;52716;-57
2021/12/04 00:59:29;;;;;;;;;14.50;13.25;;;;;-147.17;100.00;49674.75;5054193;28;51168;-55
2021/12/04 01:01:55;;;;;;;;;2.33;2.33;;;;;-147.17;100.00;49664.91;5054413;28;50878;-56
2021/12/04 01:04:22;;;;;;;;;1.33;1.00;;;;;-147.17;100.00;49704.28;5054276;28;51394;-56
2021/12/04 01:06:49;;;;;;;;;4.33;3.00;;;;;-147.17;100.00;49684.59;5054205;28;52038;-55
2021/12/04 01:09:19;;;;;;;;;2.67;1.67;;;;;-147.17;100.00;49678.69;5054127;28;51037;-55
2021/12/04 01:11:45;;;;;;;;;0.00;0.00;;;;;-147.17;100.00;49712.16;5054261;28;51076;-54
2021/12/04 01:14:13;;;;;;;;;0.00;0.00;;;;;-147.17;100.00;49708.22;5054168;28;51372;-54
2021/12/04 01:16:39;;;;;;;;;1.67;1.00;;;;;-147.17;100.00;49684.59;5053971;28;51855;-56
2021/12/04 01:19:04;;;;;;;;;0.00;0.00;;;;;-147.17;100.00;49676.72;5053781;28;51126;-56
2021/12/04 01:21:30;;;;;;;;;0.00;0.00;;;;;-147.17;100.00;49694.44;5041472;28;51065;-55
2021/12/04 01:23:56;;;;;;;;;2.33;2.00;;;;;-147.17;100.00;49664.91;5033953;28;51047;-55
2021/12/04 01:26:23;;;;;;;;;2.00;2.00;;;;;-147.17;100.00;49702.31;5033896;28;51674;-54
2021/12/04 01:28:49;;;;;;;;;3.00;3.00;;;;;-147.17;100.00;49409.06;5033255;28;51101;-55
2021/12/04 01:31:14;;;;;;;;;0.00;0.00;;;;;-147.17;100.00;49564.53;5054279;28;50912;-55
2021/12/04 01:33:40;;;;;;;;;1.00;1.00;;;;;-147.17;100.00;49625.56;5035987;28;51402;-55
2021/12/04 01:36:06;;;;;;;;;6.00;6.00;;;;;-147.17;100.00;49647.22;5054041;28;50892;-55
2021/12/04 01:38:31;;;;;;;;;2.00;2.00;;;;;-147.17;100.00;49659.03;5053618;28;50950;-55
2021/12/04 01:40:56;;;;;;;;;24.00;23.00;;;;;-147.17;100.00;49686.56;5052647;28;50884;-55
2021/12/04 01:43:22;;;;;;;;;0.00;0.00;;;;;-147.17;100.00;49706.25;5053942;28;50867;-56
2021/12/04 01:45:47;;;;;;;;;1.00;1.00;;;;;-147.17;100.00;49664.91;5053637;28;51774;-54
2021/12/04 01:48:13;;;;;;;;;1.00;1.00;;;;;-147.17;100.00;49710.19;5053395;28;51099;-54
2021/12/04 01:50:38;;;;;;;;;1.00;1.00;;;;;-147.17;100.00;49706.25;5051731;28;51583;-52
2021/12/04 01:53:05;;;;;;;;;1.00;0.00;;;;;-147.17;100.00;49664.91;5035393;28;51054;-53
2021/12/04 01:55:34;;;;;;;;;16.00;13.75;;;;;-147.17;100.00;49682.63;5033370;28;51776;-52
2021/12/04 01:58:01;;;;;;;;;0.33;0.00;;;;;-147.17;100.00;49688.53;5033421;28;50968;-54
2021/12/04 02:00:28;;;;;;;;;13.00;12.00;;;;;-147.17;100.00;49674.75;5032235;28;50988;-54
2021/12/04 02:02:53;;;;;;;;;0.00;0.00;;;;;-147.17;100.00;49678.69;5041844;28;52079;-54
2021/12/04 02:05:19;;;;;;;;;0.00;0.00;;;;;-147.17;100.00;49686.56;5033293;28;51989;-54
2021/12/04 02:07:45;;;;;;;;;2.00;2.00;;;;;-147.17;100.00;49688.53;5032065;28;51229;-53
2021/12/04 02:10:11;;;;;;;;;0.00;0.00;;;;;-147.17;100.00;49702.31;5033581;28;50981;-53
2021/12/04 02:12:37;;;;;;;;;23.50;22.00;;;;;-147.17;100.00;49694.44;5033522;28;51077;-54
2021/12/04 02:15:03;;;;;;;;;1.00;1.00;;;;;-147.17;100.00;49694.44;5045770;28;50970;-53
2021/12/04 02:17:28;;;;;;;;;0.00;0.00;;;;;-147.17;100.00;49702.31;5051926;28;50960;-53
2021/12/04 02:19:54;;;;;;;;;3.00;3.00;;;;;-147.17;100.00;49674.75;5052176;28;51234;-54
2021/12/04 02:22:19;;;;;;;;;0.00;0.00;;;;;-147.17;100.00;49698.38;5050499;28;51505;-56
2021/12/04 02:24:44;;;;;;;;;0.00;0.00;;;;;-147.17;100.00;49710.19;5052758;28;50975;-53
2021/12/04 02:27:13;;;;;;;;;1.00;0.00;;;;;-147.17;100.00;49702.31;5054125;28;51183;-55
2021/12/04 02:29:46;;;;;;;;;0.00;0.00;;;;;-147.17;100.00;49702.31;5052647;28;51487;-55
2021/12/04 02:32:12;;;;;;;;;0.67;0.00;;;;;-147.17;100.00;49682.63;5053336;28;50884;-55
2021/12/04 02:34:38;;;;;;;;;47.00;40.25;;;;;-147.17;100.00;49725.94;5052305;28;51044;-55
2021/12/04 02:37:06;;;;;;;;;1.00;0.00;;;;;-147.17;100.00;49761.38;5053300;28;51124;-55
2021/12/04 02:39:35;;;;;;;;;1.33;1.00;;;;;-147.17;100.00;49741.69;5053062;28;51111;-55
2021/12/04 02:42:01;;;;;;;;;1.00;1.00;;;;;-147.17;100.00;49763.34;5053319;28;50899;-56
2021/12/04 02:44:38;;;;;;;;;0.00;0.00;;;;;-147.17;100.00;49737.75;5052677;28;50924;-54
2021/12/04 02:47:05;;;;;;;;;0.00;0.00;;;;;-147.17;100.00;49751.53;5053158;28;50982;-54
2021/12/04 02:49:30;;;;;;;;;0.00;0.00;;;;;-147.17;100.00;49749.56;5051349;28;51162;-55
2021/12/04 02:52:03;;;;;;;;;0.00;0.00;;;;;-147.17;100.00;49747.59;5052334;28;52335;-55
2021/12/04 02:54:29;;;;;;;;;2.33;2.33;;;;;-147.17;100.00;49788.91;5035014;28;52016;-53
2021/12/04 02:56:54;;;;;;;;;1.00;1.00;;;;;-147.17;100.00;49784.97;5032329;28;51054;-52
2021/12/04 02:59:20;;;;;;;;;1.67;1.00;;;;;-147.17;100.00;49792.84;5049115;28;51415;-52
2021/12/04 03:01:45;;;;;;;;;0.00;0.00;;;;;-147.17;100.00;49779.09;5053161;28;51079;-55
2021/12/04 03:04:12;;;;;;;;;1.33;1.33;;;;;-147.17;100.00;49844.03;5055054;28;52699;-54
2021/12/04 03:06:43;;;;;;;;;0.00;0.00;;;;;-147.17;100.00;49816.47;5056175;28;51009;-51
2021/12/04 03:09:09;;;;;;;;;0.00;0.00;;;;;-147.17;100.00;49840.09;5056207;28;51235;-56
2021/12/04 03:11:35;;;;;;;;;0.00;0.00;;;;;-147.17;100.00;49824.34;5056600;28;51258;-51
2021/12/04 03:14:02;;;;;;;;;0.00;0.00;;;;;-147.17;100.00;49812.53;5056064;28;51944;-55
2021/12/04 03:16:27;;;;;;;;;0.00;0.00;;;;;-147.17;100.00;49838.13;5055030;28;51213;-54
2021/12/04 03:18:52;;;;;;;;;1.00;0.00;;;;;-147.17;100.00;49804.66;5055778;28;50937;-55
2021/12/04 03:21:18;;;;;;;;;1.00;0.33;;;;;-147.17;100.00;49840.09;5045565;28;50923;-54
2021/12/04 03:26:41;;;;;;;;;0.33;0.00;;;;;-147.17;100.00;49775.16;5013970;28;50981;-55
2021/12/04 03:29:11;;;;;;;;;0.00;0.00;;;;;-147.17;100.00;49810.56;5055666;28;51163;-55
2021/12/04 03:42:30;;;;;;;;;1.00;1.00;;;;;-147.17;100.00;49824.34;5056151;28;50929;-55
2021/12/04 03:44:55;;;;;;;;;3.00;3.00;;;;;-147.17;100.00;49840.09;5055501;28;52037;-54
2021/12/04 03:47:22;;;;;;;;;1.00;0.67;;;;;-147.17;100.00;49851.91;5055486;28;51100;-54
2021/12/04 03:49:48;;;;;;;;;0.00;0.00;;;;;-147.17;100.00;49909.00;5055247;28;51099;-54
2021/12/04 03:52:14;;;;;;;;;0.00;0.00;;;;;-147.17;100.00;49863.72;5047325;28;51061;-55
2021/12/04 03:54:40;;;;;;;;;0.00;0.00;;;;;-147.17;100.00;49865.69;5054980;28;51893;-55
2021/12/04 03:57:06;;;;;;;;;1.00;0.00;;;;;-147.17;100.00;49887.34;5054414;28;51123;-55
2021/12/04 03:59:34;;;;;;;;;0.00;0.00;;;;;-147.17;100.00;49855.84;5055129;28;50891;-55
2021/12/04 04:02:00;;;;;;;;;0.00;0.00;;;;;-147.17;100.00;49914.91;5037313;28;51400;-55
2021/12/04 04:04:26;;;;;;;;;0.00;0.00;;;;;-147.17;100.00;49905.06;5054684;28;51794;-55
2021/12/04 04:06:51;;;;;;;;;0.00;0.00;;;;;-147.17;100.00;49910.97;5055451;28;51023;-56
2021/12/04 04:09:17;;;;;;;;;0.00;0.00;;;;;-147.17;100.00;49942.44;5055535;28;51533;-56
2021/12/04 04:11:42;;;;;;;;;0.00;0.00;;;;;-147.17;100.00;49914.91;5055734;28;51076;-55
2021/12/04 04:14:08;;;;;;;;;0.00;0.00;;;;;-147.17;100.00;49903.09;5054451;28;51790;-57
2021/12/04 04:16:37;;;;;;;;;0.00;0.00;;;;;-147.17;100.00;49934.56;5055267;28;51071;-55
2021/12/04 04:19:03;;;;;;;;;0.00;0.00;;;;;-147.17;100.00;49934.56;5051315;28;51278;-55
2021/12/04 04:21:28;;;;;;;;;0.00;0.00;;;;;-147.17;100.00;49930.63;5055442;28;51351;-55
2021/12/04 04:23:54;;;;;;;;;0.00;0.00;;;;;-147.17;100.00;49926.69;5054534;28;51829;-55
2021/12/04 04:26:19;;;;;;;;;1.00;1.00;;;;;-147.17;100.00;49942.44;5041611;28;51113;-55
2021/12/04 04:28:44;;;;;;;;;0.00;0.00;;;;;-147.17;100.00;49910.97;5051886;28;50887;-55
2021/12/04 04:31:10;;;;;;;;;1.00;0.00;;;;;-147.17;100.00;49918.84;5055324;28;51330;-54
2021/12/04 04:33:40;;;;;;;;;0.00;0.00;;;;;-147.17;100.00;49893.25;5054382;28;52790;-54
2021/12/04 05:11:38;;;;;;;;;0.00;0.00;;;;;-147.17;100.00;49942.44;5054685;28;51164;-53
2021/12/04 05:14:05;;;;;;;;;1.00;0.00;;;;;-147.17;100.00;49954.25;5054348;28;51374;-53
2021/12/04 05:16:42;;;;;;;;;0.00;0.00;;;;;-147.17;100.00;49926.69;5036531;28;51062;-54
2021/12/04 05:21:59;;;;;;;;;0.00;0.00;;;;;-147.17;100.00;49962.13;5023132;28;51296;-54
2021/12/04 05:24:25;;;;;;;;;0.00;0.00;;;;;-147.17;100.00;49970.00;5036735;28;50995;-55
2021/12/04 05:26:51;;;;;;;;;0.00;0.00;;;;;-147.17;100.00;49973.94;5053185;28;51785;-54
2021/12/04 05:29:16;;;;;;;;;1.00;0.00;;;;;-147.17;100.00;49950.31;5054921;28;51158;-54
2021/12/04 05:31:41;;;;;;;;;0.00;0.00;;;;;-147.17;100.00;49924.72;5054035;28;51199;-55
2021/12/04 05:34:07;;;;;;;;;0.00;0.00;;;;;-147.17;100.00;49936.53;5043776;28;51146;-52
2021/12/04 05:36:32;;;;;;;;;0.00;0.00;;;;;-147.17;100.00;49946.38;5033657;28;51041;-55
2021/12/04 05:38:57;;;;;;;;;0.00;0.00;;;;;-147.17;100.00;49960.16;5033913;28;51014;-54
2021/12/04 05:41:24;;;;;;;;;0.00;0.00;;;;;-147.17;100.00;49954.25;5033359;28;51030;-55
2021/12/04 05:43:49;;;;;;;;;0.00;0.00;;;;;-147.17;100.00;49973.94;5033834;28;50938;-54
2021/12/04 05:46:18;;;;;;;;;0.00;0.00;;;;;-147.17;100.00;50007.41;5044028;28;51105;-55
2021/12/04 05:49:05;;;;;;;;;0.00;0.00;;;;;-147.17;100.00;49954.25;5053476;28;51108;-56
2021/12/04 05:51:52;;;;;;;;;0.00;0.00;;;;;-147.17;100.00;49934.56;5053234;28;51029;-54
2021/12/04 05:57:01;;;;;;;;;0.00;0.00;;;;;-147.17;100.00;49950.31;5053608;28;51614;-54
2021/12/04 05:59:26;;;;;;;;;0.00;0.00;;;;;-147.17;100.00;49989.69;5053436;28;51356;-55
2021/12/04 06:01:52;;;;;;;;;0.00;0.00;;;;;-147.17;100.00;49979.84;5053608;28;51596;-54
2021/12/04 06:04:18;;;;;;;;;0.00;0.00;;;;;-147.17;100.00;49977.88;5053002;28;51313;-53
2021/12/04 06:06:44;;;;;;;;;0.00;0.00;;;;;-147.17;100.00;49960.16;5053309;28;50989;-54
2021/12/04 06:09:10;;;;;;;;;0.00;0.00;;;;;-147.17;100.00;49966.06;5053363;28;51041;-54
2021/12/04 06:11:36;;;;;;;;;0.00;0.00;;;;;-147.17;100.00;49942.44;5052915;28;52644;-55
2021/12/04 06:14:03;;;;;;;;;0.00;0.00;;;;;-147.17;100.00;49942.44;5038173;28;50909;-55
2021/12/04 06:16:29;;;;;;;;;0.00;0.00;;;;;-147.17;100.00;49938.50;5053286;28;51214;-53
2021/12/04 06:18:55;;;;;;;;;0.00;0.00;;;;;-147.17;100.00;49975.91;5053061;28;51079;-54
2021/12/04 06:24:06;;;;;;;;;0.00;0.00;;;;;-147.17;100.00;49960.16;5053855;28;51042;-56
2021/12/04 06:26:33;;;;;;;;;0.00;0.00;;;;;-147.17;100.00;49968.03;5035106;28;52452;-55
2021/12/04 06:28:59;;;;;;;;;0.00;0.00;;;;;-147.17;100.00;49981.81;5036390;28;51122;-55
2021/12/04 06:31:25;;;;;;;;;0.00;0.00;;;;;-147.17;100.00;49952.28;5053361;28;50898;-55
2021/12/04 06:33:52;;;;;;;;;0.00;0.00;;;;;-147.17;100.00;49987.72;5053033;28;51313;-55
2021/12/04 06:36:18;;;;;;;;;0.00;0.00;;;;;-147.17;100.00;50003.47;5052815;28;51156;-54
2021/12/04 06:38:44;;;;;;;;;0.00;0.00;;;;;-147.17;100.00;49966.06;5053355;28;51042;-55
2021/12/04 06:41:10;;;;;;;;;0.00;0.00;;;;;-147.17;100.00;49958.19;5052769;28;51192;-55
2021/12/04 06:43:37;;;;;;;;;0.00;0.00;;;;;-147.17;100.00;49970.00;5052346;28;51038;-54
2021/12/04 06:46:05;;;;;;;;;0.00;0.00;;;;;-147.17;100.00;49956.22;5052626;28;52068;-56
2021/12/04 06:54:14;;;;;;;;;0.00;0.00;;;;;-147.17;100.00;49964.09;5047514;28;51135;-54
2021/12/04 06:56:42;;;;;;;;;0.00;0.00;;;;;-147.17;100.00;49966.06;5032650;28;52688;-56
2021/12/04 06:59:14;;;;;;;;;0.00;0.00;;;;;-147.17;100.00;49942.44;5031453;28;51052;-54
2021/12/04 07:01:40;;;;;;;;;1.00;0.67;;;;;-147.17;100.00;49918.84;5032518;28;51027;-55
2021/12/04 07:04:06;;;;;;;;;0.00;0.00;;;;;-147.17;100.00;49940.47;5032795;28;51130;-55
2021/12/04 07:06:32;;;;;;;;;1.00;1.00;;;;;-147.17;100.00;49934.56;5032450;28;51970;-55
2021/12/04 07:08:59;;;;;;;;;0.00;0.00;;;;;-147.17;100.00;49934.56;5031497;28;51018;-54
2021/12/04 07:11:25;;;;;;;;;0.00;0.00;;;;;-147.17;100.00;49916.88;5034409;28;51203;-54
2021/12/04 07:13:52;;;;;;;;;0.00;0.00;;;;;-147.17;100.00;49914.91;5038133;28;51018;-53
2021/12/04 07:16:19;;;;;;;;;0.00;0.00;;;;;-147.17;100.00;49916.88;5052518;28;51076;-54
2021/12/04 07:18:44;;;;;;;;;0.00;0.00;;;;;-147.17;100.00;49855.84;5047736;28;51188;-54
2021/12/04 07:21:10;;;;;;;;;0.00;0.00;;;;;-147.17;100.00;49867.66;5032676;28;51516;-53
2021/12/04 07:23:37;;;;;;;;;1.33;1.33;;;;;-147.17;100.00;49842.06;5032620;28;51172;-56
2021/12/04 07:26:07;;;;;;;;;0.00;0.00;;;;;-147.17;100.00;49851.91;5039644;28;53138;-53
2021/12/04 07:28:33;;;;;;;;;1.00;1.00;;;;;-147.17;100.00;49804.66;5050874;28;51070;-55
2021/12/04 07:30:59;;;;;;;;;0.00;0.00;;;;;-147.17;100.00;49842.06;5052392;28;50993;-55
2021/12/04 07:33:24;;;;;;;;;0.00;0.00;;;;;-147.17;100.00;49816.47;5050743;28;51013;-54
2021/12/04 07:35:51;;;;;;;;;0.00;0.00;;;;;-147.17;100.00;49816.47;5052213;28;51713;-54
2021/12/04 07:38:17;;;;;;;;;0.00;0.00;;;;;-147.17;100.00;49773.19;5048734;28;51105;-54
2021/12/04 07:40:44;;;;;;;;;0.00;0.00;;;;;-147.17;100.00;49777.13;5032102;28;50899;-53
2021/12/04 07:43:11;;;;;;;;;0.00;0.00;;;;;-147.17;100.00;49794.81;5040525;28;51294;-54
2021/12/04 07:45:37;;;;;;;;;2.00;2.00;;;;;-147.17;100.00;49802.69;5052037;28;52703;-54
2021/12/04 07:48:03;;;;;;;;;3.00;3.00;;;;;-147.17;100.00;49765.31;5051627;28;51076;-54
2021/12/04 07:50:29;;;;;;;;;2.00;2.00;;;;;-147.17;100.00;49745.63;5037334;28;51236;-54
2021/12/04 07:52:55;;;;;;;;;3.00;2.67;;;;;-147.17;100.00;49830.25;5055695;28;51095;-55
2021/12/04 07:55:21;;;;;;;;;0.00;0.00;;;;;-147.17;100.00;49818.44;5055498;28;52747;-54
2021/12/04 07:57:47;;;;;;;;;0.67;0.00;;;;;-147.17;100.00;49847.97;5055416;28;51014;-54
2021/12/04 08:00:17;;;;;;;;;1.00;1.00;;;;;-147.17;100.00;49812.53;5055568;28;51179;-54
2021/12/04 08:02:43;;;;;;;;;1.00;1.00;;;;;-147.17;100.00;49812.53;5055089;28;51382;-55
2021/12/04 08:05:10;;;;;;;;;1.00;0.00;;;;;-147.17;100.00;49826.31;5054491;28;51196;-55
2021/12/04 08:07:36;;;;;;;;;0.00;0.00;;;;;-147.17;100.00;49808.59;5055403;28;51024;-54
2021/12/04 08:10:02;;;;;;;;;0.33;0.00;;;;;-147.17;100.00;49820.41;5055438;28;50981;-56
2021/12/04 08:12:27;;;;;;;;;0.33;0.33;;;;;-147.17;100.00;49781.06;5055357;28;51396;-55
2021/12/04 08:14:53;;;;;;;;;1.00;0.00;;;;;-147.17;100.00;49806.63;5036985;28;51834;-56
2021/12/04 08:17:20;;;;;;;;;6.67;6.67;;;;;-147.17;100.00;49796.78;5054738;28;51265;-54
2021/12/04 08:19:45;;;;;;;;;2.00;2.00;;;;;-147.17;100.00;49773.19;5055131;28;51169;-55
2021/12/04 08:22:11;;;;;;;;;0.33;0.33;;;;;-147.17;100.00;49836.16;5055378;28;50924;-55
2021/12/04 08:24:37;;;;;;;;;0.00;0.00;;;;;-147.17;100.00;49842.06;5055282;28;51903;-55
2021/12/04 08:27:03;;;;;;;;;0.00;0.00;;;;;-147.17;100.00;49887.34;5055918;28;51439;-54
2021/12/04 08:29:29;;;;;;;;;0.00;0.00;;;;;-147.17;100.00;49916.88;5055118;28;51017;-54
2021/12/04 08:31:55;;;;;;;;;0.00;0.00;;;;;-147.17;100.00;49907.03;5055135;28;50995;-58
2021/12/04 08:34:21;;;;;;;;;0.00;0.00;;;;;-147.17;100.00;49944.41;5054017;28;51128;-55
2021/12/04 08:36:46;;;;;;;;;0.00;0.00;;;;;-147.17;100.00;49964.09;5036623;28;50991;-57
2021/12/04 08:39:12;;;;;;;;;0.00;0.00;;;;;-147.17;100.00;49962.13;5034988;28;51097;-57
2021/12/04 08:41:38;;;;;;;;;0.00;0.00;;;;;-147.17;100.00;49971.97;5042124;28;51267;-57
2021/12/04 08:44:04;;;;;;;;;0.00;0.00;;;;;-147.17;100.00;49989.69;5054635;28;51128;-55
2021/12/04 08:46:29;;;;;;;;;0.00;0.00;;;;;-147.17;100.00;50001.50;5034545;28;51058;-56
2021/12/04 08:48:55;;;;;;;;;0.00;0.00;;;;;-147.17;100.00;50017.25;5043817;28;50919;-57
2021/12/04 08:51:22;;;;;;;;;0.00;0.00;;;;;-147.17;100.00;50013.31;5043599;28;50828;-55
2021/12/04 08:53:49;;;;;;;;;1.00;0.00;;;;;-147.17;100.00;50019.22;5054319;28;51150;-55
2021/12/04 08:56:15;;;;;;;;;0.00;0.00;;;;;-147.17;100.00;50033.00;5054527;28;50934;-53
2021/12/04 08:58:41;;;;;;;;;0.00;0.00;;;;;-147.17;100.00;50050.72;5046410;28;51070;-56
2021/12/04 09:01:12;;;;;;;;;0.00;0.00;;;;;-147.17;100.00;50080.25;5034414;28;51247;-56
2021/12/04 09:03:42;;;;;;;;;0.33;0.00;;;;;-147.17;100.00;50095.97;5037442;28;52044;-56
2021/12/04 09:06:09;;;;;;;;;0.00;0.00;;;;;-147.17;100.00;50092.03;5034868;28;50907;-54
2021/12/04 09:08:34;;;;;;;;;0.00;0.00;;;;;-147.17;100.00;50119.59;5034145;28;50871;-56
2021/12/04 09:11:06;;;;;;;;;0.00;0.00;;;;;-147.17;100.00;50117.63;5034340;28;51157;-55
2021/12/04 09:13:32;;;;;;;;;0.00;0.00;;;;;-147.17;100.00;50141.25;5034125;28;52066;-63
2021/12/04 09:15:59;;;;;;;;;0.00;0.00;;;;;-147.17;100.00;50196.38;5053032;28;51212;-63
2021/12/04 09:18:25;;;;;;;;;0.00;0.00;;;;;-147.17;100.00;50182.59;5050731;28;51234;-63
2021/12/04 09:20:53;;;;;;;;;0.00;0.00;;;;;-147.17;100.00;50182.59;5052380;28;52230;-64
2021/12/04 09:23:20;;;;;;;;;0.00;0.00;;;;;-147.17;100.00;50186.53;5054330;28;51163;-64
2021/12/04 09:25:51;;;;;;;;;0.00;0.00;;;;;-147.17;100.00;50223.94;5053170;28;51071;-64
2021/12/04 10:01:14;;;;;;;;;1.00;1.00;;;;;-147.17;100.00;50324.31;5051663;28;50957;-62
2021/12/04 10:11:15;;;;;;;;;1.33;1.00;;;;;-147.17;100.00;50334.16;4992755;28;51139;-63
2021/12/04 10:18:10;;;;;;;;;4.00;3.67;;;;;-147.17;100.00;50308.59;5012161;28;51784;-63
2021/12/04 10:33:53;;;;;;;;;5.00;4.33;;;;;-147.17;100.00;50316.44;4999570;28;51163;-64
2021/12/04 10:36:33;;;;;;;;;1.00;1.00;;;;;-147.17;100.00;50338.09;5012279;28;51372;-62
2021/12/04 10:38:59;;;;;;;;;2.67;1.00;;;;;-147.17;100.00;50318.41;5010471;28;52504;-62
2021/12/04 10:41:46;;;;;;;;;2.00;2.00;;;;;-147.17;100.00;50308.59;4996399;28;51112;-64
2021/12/04 10:44:19;;;;;;;;;2.33;2.00;;;;;-147.17;100.00;50269.22;4998989;28;50999;-65
2021/12/04 10:46:53;;;;;;;;;2.67;2.00;;;;;-147.17;100.00;50294.81;4992794;28;50996;-63
2021/12/04 10:50:10;;;;;;;;;3.33;3.33;;;;;-147.17;100.00;50265.28;4992052;28;51945;-63
2021/12/04 10:52:49;;;;;;;;;2.00;2.00;;;;;-147.17;100.00;50255.44;5006860;28;50891;-63
2021/12/04 11:01:03;;;;;;;;;2.00;2.00;;;;;-147.17;100.00;50286.94;4992228;28;51168;-63
2021/12/04 11:44:06;;;;;;;;;4.00;4.00;;;;;-147.17;100.00;50166.84;5054766;28;51665;-63
2021/12/04 11:46:45;;;;;;;;;3.33;3.00;;;;;-147.17;100.00;50186.53;5055190;28;51135;-63
2021/12/04 11:49:30;;;;;;;;;4.67;4.00;;;;;-147.17;100.00;50133.38;5055211;28;51089;-63
2021/12/04 11:52:01;;;;;;;;;6.67;6.33;;;;;-147.17;100.00;50180.63;5037112;28;51390;-64
2021/12/04 11:54:33;;;;;;;;;6.00;5.00;;;;;-147.17;100.00;50170.78;5052524;28;51135;-64
2021/12/04 11:57:09;;;;;;;;;11.00;10.00;;;;;-147.17;100.00;50194.41;5042433;28;52745;-64
2021/12/04 11:59:38;;;;;;;;;10.33;9.33;;;;;-147.17;100.00;50172.75;5040551;28;51066;-63
2021/12/04 12:02:08;;;;;;;;;4.00;3.33;;;;;-147.17;100.00;50127.47;5038881;28;51319;-65
2021/12/04 12:04:35;;;;;;;;;4.00;3.67;;;;;-147.17;100.00;50133.38;5017836;28;51908;-62
2021/12/04 12:07:17;;;;;;;;;9.33;7.33;;;;;-147.17;100.00;50123.53;5037203;28;50942;-62
2021/12/04 12:09:44;;;;;;;;;6.00;5.67;;;;;-147.17;100.00;50172.75;5034007;28;51393;-63
2021/12/04 12:12:14;;;;;;;;;8.00;5.67;;;;;-147.17;100.00;50162.91;5034383;28;51169;-62
2021/12/04 12:14:50;;;;;;;;;7.00;6.33;;;;;-147.17;100.00;50190.47;5042653;28;51202;-63
2021/12/04 12:17:28;;;;;;;;;6.33;5.67;;;;;-147.17;100.00;50218.03;5053217;28;51122;-62
2021/12/04 12:19:54;;;;;;;;;8.00;6.00;;;;;-147.17;100.00;50231.81;5036504;28;51097;-62
2021/12/04 12:22:43;;;;;;;;;8.00;7.67;;;;;-147.17;100.00;50231.81;5054169;28;52440;-64
2021/12/04 12:36:24;;;;;;;;;12.00;11.00;;;;;-147.17;100.00;50304.66;5043434;28;51698;-63
2021/12/04 12:39:05;;;;;;;;;5.67;5.00;;;;;-147.17;100.00;50320.38;5036033;28;51163;-63
2021/12/04 12:41:40;;;;;;;;;5.33;4.67;;;;;-147.17;100.00;50314.47;5053545;28;51256;-64
2021/12/04 12:44:38;;;;;;;;;6.00;4.33;;;;;-147.17;100.00;50351.88;5035636;28;51316;-62
2021/12/04 12:47:15;;;;;;;;;8.67;7.33;;;;;-147.17;100.00;50316.44;5019662;28;52075;-63
2021/12/04 12:49:42;;;;;;;;;8.67;7.67;;;;;-147.17;100.00;50306.63;5022409;28;51226;-62
2021/12/04 12:52:14;;;;;;;;;6.67;5.00;;;;;-147.17;100.00;50332.19;5042642;28;51218;-63
2021/12/04 12:54:44;;;;;;;;;8.33;6.00;;;;;-147.17;100.00;50310.56;5031920;28;51362;-63
2021/12/04 12:57:24;;;;;;;;;6.33;6.00;;;;;-147.17;100.00;50344.00;5033320;28;51040;-63
2021/12/04 13:11:41;;;;;;;;;6.00;6.00;;;;;-147.17;100.00;50326.28;5053643;28;50943;-62
2021/12/04 13:14:20;;;;;;;;;8.00;6.00;;;;;-147.17;100.00;50375.50;5053199;28;50894;-63
2021/12/04 13:16:50;;;;;;;;;5.33;4.67;;;;;-147.17;100.00;50365.66;5049559;28;51124;-63
2021/12/04 13:19:19;;;;;;;;;5.00;5.00;;;;;-147.17;100.00;50324.31;5037294;28;51150;-63
2021/12/04 13:21:48;;;;;;;;;7.00;5.33;;;;;-147.17;100.00;50332.19;5053291;28;51173;-63
2021/12/04 13:24:16;;;;;;;;;4.00;4.00;;;;;-147.17;100.00;50306.63;5052442;28;50947;-63
2021/12/04 13:26:47;;;;;;;;;5.33;4.67;;;;;-147.17;100.00;50304.66;5022858;28;50852;-63
2021/12/04 13:29:16;;;;;;;;;9.33;6.67;;;;;-147.17;100.00;50357.78;5049550;28;51175;-64
2021/12/04 13:31:43;;;;;;;;;8.33;7.33;;;;;-147.17;100.00;50324.31;5051923;28;50977;-64
2021/12/04 13:34:12;;;;;;;;;7.33;6.00;;;;;-147.17;100.00;50373.53;5049553;28;51151;-63
2021/12/04 13:36:39;;;;;;;;;5.33;4.67;;;;;-147.17;100.00;50359.75;5032543;28;51141;-65
2021/12/04 13:39:08;;;;;;;;;6.00;6.00;;;;;-147.17;100.00;50379.44;5050162;28;52843;-63
2021/12/04 13:41:36;;;;;;;;;5.67;5.67;;;;;-147.17;100.00;50387.31;5047817;28;51226;-63
2021/12/04 13:44:04;;;;;;;;;6.33;6.00;;;;;-147.17;100.00;50430.63;5052827;28;51113;-63
2021/12/04 13:46:38;;;;;;;;;5.67;5.00;;;;;-147.17;100.00;50434.56;5051766;28;50920;-64
2021/12/04 13:49:04;;;;;;;;;4.00;2.00;;;;;-147.17;100.00;50442.44;5040538;28;52016;-63
2021/12/04 13:51:30;;;;;;;;;8.67;6.00;;;;;-147.17;100.00;50434.56;5053265;28;51005;-63
2021/12/04 13:53:55;;;;;;;;;7.67;7.33;;;;;-147.17;100.00;50466.06;5053390;28;51027;-63
2021/12/04 13:56:24;;;;;;;;;12.33;12.33;;;;;-147.17;100.00;50430.63;5053011;28;51281;-63
2021/12/04 13:58:53;;;;;;;;;5.00;4.33;;;;;-147.17;100.00;50418.81;5052270;28;51918;-63
2021/12/04 14:01:19;;;;;;;;;6.33;5.00;;;;;-147.17;100.00;50464.09;5050328;28;51188;-62
2021/12/04 14:03:47;;;;;;;;;5.67;5.00;;;;;-147.17;100.00;50450.31;5052006;28;51136;-63
2021/12/04 14:06:15;;;;;;;;;9.67;6.67;;;;;-147.17;100.00;50430.63;5050492;28;50982;-63
2021/12/04 14:08:42;;;;;;;;;9.00;7.67;;;;;-147.17;100.00;50438.50;5047992;28;52141;-61
2021/12/04 14:11:07;;;;;;;;;5.00;3.00;;;;;-147.17;100.00;50387.31;5044724;28;51065;-60
2021/12/04 14:13:33;;;;;;;;;8.00;8.00;;;;;-147.17;100.00;50408.97;5039386;28;52548;-61
2021/12/04 14:15:59;;;;;;;;;9.00;6.00;;;;;-147.17;100.00;50418.81;5040352;28;51375;-60
2021/12/04 14:18:27;;;;;;;;;7.67;6.33;;;;;-147.17;100.00;50387.31;5015417;28;51913;-59
2021/12/04 14:21:00;;;;;;;;;6.33;6.33;;;;;-147.17;100.00;50403.06;5038954;28;52772;-63
2021/12/04 14:23:29;;;;;;;;;9.00;6.00;;;;;-147.17;100.00;50426.69;5042007;28;51503;-62
2021/12/04 14:25:55;;;;;;;;;5.00;5.00;;;;;-147.17;100.00;50414.88;5040740;28;51340;-63
2021/12/04 14:28:25;;;;;;;;;10.00;9.00;;;;;-147.17;100.00;50418.81;5039502;28;53141;-65
2021/12/04 14:30:51;;;;;;;;;5.67;4.67;;;;;-147.17;100.00;50438.50;5039533;28;51188;-62
2021/12/04 14:33:23;;;;;;;;;4.00;4.00;;;;;-147.17;100.00;50440.47;5043671;28;51153;-62
2021/12/04 14:35:52;;;;;;;;;6.00;5.67;;;;;-147.17;100.00;50440.47;5024563;28;52496;-62
2021/12/04 14:38:27;;;;;;;;;13.25;12.25;;;;;-147.17;100.00;50412.91;5041349;28;52815;-62